createdAt,value
2022-11-16T00:02:21.095Z,6.82
2022-11-16T00:04:47.624Z,9.43
2022-11-16T00:07:14.078Z,7.80
2022-11-16T00:09:40.614Z,7.07
2022-11-16T00:12:08.175Z,8.70
2022-11-16T00:14:36.050Z,7.13
2022-11-16T00:17:03.584Z,4.45
2022-11-16T00:19:30.364Z,10.68
2022-11-16T00:21:57.027Z,17.60
2022-11-16T00:24:23.869Z,6.82
2022-11-16T00:26:51.383Z,3.63
2022-11-16T00:29:22.789Z,5.80
2022-11-16T00:31:49.826Z,5.20
2022-11-16T00:34:17.290Z,5.53
2022-11-16T00:36:44.127Z,4.70
2022-11-16T00:39:12.557Z,4.82
2022-11-16T00:41:39.560Z,3.92
2022-11-16T00:44:06.122Z,4.93
2022-11-16T00:46:32.730Z,5.43
2022-11-16T00:48:59.345Z,4.90
2022-11-16T00:51:25.799Z,8.13
2022-11-16T00:53:52.217Z,4.68
2022-11-16T00:56:18.747Z,3.45
2022-11-16T00:58:45.160Z,4.22
2022-11-16T01:01:11.967Z,5.75
2022-11-16T01:03:38.710Z,4.38
2022-11-16T01:06:08.155Z,5.72
2022-11-16T01:08:37.464Z,4.63
2022-11-16T01:11:04.932Z,6.15
2022-11-16T01:13:31.682Z,4.75
2022-11-16T01:15:58.415Z,4.68
2022-11-16T01:18:24.812Z,3.95
2022-11-16T01:20:51.577Z,4.38
2022-11-16T01:23:18.026Z,6.00
2022-11-16T01:25:44.456Z,3.47
2022-11-16T01:28:10.995Z,4.05
2022-11-16T01:30:37.418Z,4.78
2022-11-16T01:33:04.205Z,4.10
2022-11-16T01:35:30.698Z,4.07
2022-11-16T01:37:57.114Z,5.70
2022-11-16T01:40:23.527Z,3.97
2022-11-16T01:42:50.129Z,4.85
2022-11-16T01:45:19.491Z,4.68
2022-11-16T01:47:46.768Z,5.97
2022-11-16T01:50:16.762Z,3.53
2022-11-16T01:52:48.974Z,11.18
2022-11-16T01:55:15.912Z,6.57
2022-11-16T01:57:44.224Z,6.53
2022-11-16T02:00:13.292Z,3.53
2022-11-16T02:02:39.758Z,4.28
2022-11-16T02:05:07.660Z,5.07
2022-11-16T02:07:41.857Z,5.93
2022-11-16T02:10:30.947Z,7.07
2022-11-16T02:13:31.885Z,3.15
2022-11-16T02:16:30.636Z,6.57
2022-11-16T02:19:24.399Z,5.30
2022-11-16T02:21:56.999Z,4.03
2022-11-16T02:24:42.467Z,11.65
2022-11-16T02:27:44.473Z,3.65
2022-11-16T02:30:11.038Z,6.25
2022-11-16T02:32:47.283Z,3.30
2022-11-16T02:35:21.663Z,4.07
2022-11-16T02:37:56.383Z,3.92
2022-11-16T02:40:26.322Z,4.13
2022-11-16T02:42:57.946Z,4.60
2022-11-16T02:45:28.420Z,5.03
2022-11-16T02:48:00.162Z,6.68
2022-11-16T02:50:27.730Z,5.13
2022-11-16T02:52:54.169Z,3.55
2022-11-16T02:55:21.192Z,4.78
2022-11-16T02:57:57.800Z,4.68
2022-11-16T03:00:29.057Z,3.80
2022-11-16T03:03:08.030Z,10.32
2022-11-16T03:05:41.242Z,4.10
2022-11-16T03:08:12.999Z,6.57
2022-11-16T03:10:41.828Z,4.05
2022-11-16T03:13:11.974Z,2.65
2022-11-16T03:15:41.666Z,5.30
2022-11-16T03:18:08.961Z,3.53
2022-11-16T03:20:37.858Z,6.25
2022-11-16T03:23:08.413Z,5.80
2022-11-16T03:25:45.958Z,3.33
2022-11-16T03:28:21.861Z,4.18
2022-11-16T03:31:13.364Z,4.32
2022-11-16T03:33:45.885Z,11.35
2022-11-16T03:36:20.389Z,8.43
2022-11-16T03:38:50.141Z,5.40
2022-11-16T03:41:19.320Z,10.00
2022-11-16T03:43:48.988Z,5.15
2022-11-16T03:46:16.646Z,8.65
2022-11-16T03:48:43.331Z,5.55
2022-11-16T03:51:11.087Z,4.85
2022-11-16T03:53:37.965Z,5.45
2022-11-16T03:56:04.953Z,4.82
2022-11-16T03:58:32.902Z,4.57
2022-11-16T04:00:59.879Z,7.97
2022-11-16T04:03:26.333Z,4.47
2022-11-16T04:05:53.300Z,8.27
2022-11-16T04:08:19.892Z,6.32
2022-11-16T04:10:46.364Z,5.93
2022-11-16T04:13:14.525Z,8.40
2022-11-16T04:15:41.176Z,4.30
2022-11-16T04:18:10.227Z,7.15
2022-11-16T04:20:36.649Z,7.35
2022-11-16T04:23:08.847Z,8.40
2022-11-16T04:25:39.377Z,8.32
2022-11-16T04:28:06.252Z,10.73
2022-11-16T04:30:32.945Z,11.00
2022-11-16T04:32:59.365Z,8.93
2022-11-16T04:35:25.866Z,12.48
2022-11-16T04:37:53.081Z,9.93
2022-11-16T04:40:25.340Z,12.70
2022-11-16T04:42:53.100Z,10.43
2022-11-16T04:45:20.734Z,7.40
2022-11-16T04:47:50.420Z,7.40
2022-11-16T04:50:18.387Z,7.78
2022-11-16T04:52:45.427Z,8.60
2022-11-16T04:55:12.549Z,8.77
2022-11-16T04:57:40.235Z,6.97
2022-11-16T05:00:08.017Z,5.50
2022-11-16T05:02:34.420Z,9.43
2022-11-16T05:05:00.814Z,6.15
2022-11-16T05:07:27.391Z,6.75
2022-11-16T05:09:53.951Z,8.98
2022-11-16T05:12:26.254Z,13.90
2022-11-16T05:14:53.328Z,10.73
2022-11-16T05:17:19.778Z,9.00
2022-11-16T05:19:46.275Z,7.47
2022-11-16T05:22:12.995Z,11.90
2022-11-16T05:24:39.397Z,9.38
2022-11-16T05:27:12.321Z,8.77
2022-11-16T05:29:39.429Z,11.32
2022-11-16T05:32:07.284Z,13.63
2022-11-16T05:34:33.976Z,10.35
2022-11-16T05:37:00.977Z,11.48
2022-11-16T05:39:27.958Z,11.18
2022-11-16T05:41:55.797Z,12.60
2022-11-16T05:44:22.829Z,11.40
2022-11-16T05:46:49.332Z,13.98
2022-11-16T05:49:17.102Z,10.02
2022-11-16T05:51:45.495Z,13.23
2022-11-16T05:54:14.444Z,16.23
2022-11-16T05:56:41.206Z,10.65
2022-11-16T05:59:11.242Z,13.75
2022-11-16T06:01:42.004Z,11.65
2022-11-16T06:04:09.083Z,15.32
2022-11-16T06:06:35.584Z,9.25
2022-11-16T06:09:03.076Z,10.05
2022-11-16T06:11:35.346Z,11.40
2022-11-16T06:14:02.317Z,16.80
2022-11-16T06:16:28.836Z,9.32
2022-11-16T06:18:55.296Z,8.48
2022-11-16T06:21:21.788Z,11.75
2022-11-16T06:23:48.884Z,10.13
2022-11-16T06:26:15.320Z,10.98
2022-11-16T06:28:42.032Z,7.65
2022-11-16T06:31:08.557Z,10.98
2022-11-16T06:33:35.089Z,14.45
2022-11-16T06:36:01.550Z,10.55
2022-11-16T06:38:28.270Z,13.45
2022-11-16T06:40:57.635Z,12.18
2022-11-16T06:43:25.826Z,17.50
2022-11-16T06:45:55.077Z,10.23
2022-11-16T06:48:22.172Z,9.13
2022-11-16T06:50:50.245Z,11.90
2022-11-16T06:53:17.172Z,12.00
2022-11-16T06:55:44.132Z,9.32
2022-11-16T06:58:10.557Z,14.40
2022-11-16T07:00:37.315Z,9.25
2022-11-16T07:03:04.317Z,13.77
2022-11-16T07:05:32.111Z,13.68
2022-11-16T07:07:58.844Z,11.60
2022-11-16T07:10:26.197Z,11.00
2022-11-16T07:12:52.878Z,11.48
2022-11-16T07:15:19.370Z,11.75
2022-11-16T07:17:47.347Z,11.45
2022-11-16T07:20:14.284Z,11.93
2022-11-16T07:22:46.924Z,10.23
2022-11-16T07:25:13.531Z,14.95
2022-11-16T07:27:39.977Z,11.57
2022-11-16T07:30:07.111Z,11.60
2022-11-16T07:32:33.743Z,12.18
2022-11-16T07:35:00.369Z,12.52
2022-11-16T07:37:35.379Z,13.52
2022-11-16T07:40:02.191Z,14.00
2022-11-16T07:42:28.899Z,11.93
2022-11-16T07:44:55.628Z,10.15
2022-11-16T07:47:22.102Z,13.98
2022-11-16T07:49:49.061Z,11.82
2022-11-16T07:52:15.639Z,11.05
2022-11-16T07:54:44.746Z,9.70
2022-11-16T07:57:11.651Z,11.60
2022-11-16T07:59:38.263Z,11.52
2022-11-16T08:02:04.733Z,11.27
2022-11-16T08:04:31.310Z,15.60
2022-11-16T08:06:58.108Z,13.38
2022-11-16T08:09:24.595Z,13.88
2022-11-16T08:11:51.255Z,11.65
2022-11-16T08:14:17.754Z,9.98
2022-11-16T08:16:44.377Z,10.02
2022-11-16T08:19:10.927Z,10.82
2022-11-16T08:21:37.368Z,13.73
2022-11-16T08:24:04.299Z,12.50
2022-11-16T08:26:31.748Z,14.77
2022-11-16T08:28:58.240Z,10.98
2022-11-16T08:31:27.846Z,9.85
2022-11-16T08:33:55.053Z,12.60
2022-11-16T08:36:21.656Z,11.18
2022-11-16T08:38:50.538Z,9.93
2022-11-16T08:41:18.346Z,7.28
2022-11-16T08:43:45.583Z,8.43
2022-11-16T08:46:12.107Z,14.73
2022-11-16T08:48:39.029Z,6.72
2022-11-16T08:51:19.901Z,10.95
2022-11-16T08:53:48.632Z,6.55
2022-11-16T08:56:17.322Z,5.80
2022-11-16T08:58:43.873Z,2.42
2022-11-16T09:01:13.011Z,3.50
2022-11-16T09:03:40.309Z,2.65
2022-11-16T09:06:08.001Z,3.53
2022-11-16T09:08:37.041Z,1.30
2022-11-16T09:11:05.648Z,3.67
2022-11-16T09:13:32.319Z,2.17
2022-11-16T09:16:00.609Z,4.10
2022-11-16T09:18:28.008Z,4.75
2022-11-16T09:20:55.242Z,2.80
2022-11-16T09:23:25.331Z,2.90
2022-11-16T09:25:52.891Z,2.28
2022-11-16T09:28:20.188Z,3.47
2022-11-16T09:30:49.985Z,9.40
2022-11-16T09:33:16.694Z,6.45
2022-11-16T09:35:43.151Z,5.03
2022-11-16T09:38:09.585Z,3.65
2022-11-16T09:40:46.122Z,4.18
2022-11-16T09:43:26.333Z,4.15
2022-11-16T09:46:05.487Z,3.25
2022-11-16T09:48:36.786Z,2.65
2022-11-16T09:51:07.838Z,6.25
2022-11-16T09:53:41.595Z,3.33
2022-11-16T09:56:17.802Z,6.30
2022-11-16T09:58:58.557Z,3.63
2022-11-16T10:01:35.137Z,3.88
2022-11-16T10:04:13.676Z,6.28
2022-11-16T10:06:49.164Z,5.45
2022-11-16T10:11:56.777Z,4.72
2022-11-16T10:15:00.843Z,2.95
2022-11-16T10:17:55.645Z,5.97
2022-11-16T10:20:44.360Z,2.38
2022-11-16T10:23:35.510Z,2.20
2022-11-16T10:26:25.677Z,2.83
2022-11-16T10:29:23.280Z,2.45
2022-11-16T10:32:17.790Z,6.28
2022-11-16T10:35:03.477Z,3.08
2022-11-16T10:37:34.253Z,2.88
2022-11-16T10:40:17.277Z,3.75
2022-11-16T10:42:49.238Z,3.30
2022-11-16T10:45:22.510Z,2.88
2022-11-16T10:47:51.801Z,2.40
2022-11-16T10:50:40.881Z,3.63
2022-11-16T10:53:12.947Z,2.67
2022-11-16T10:55:39.521Z,3.42
2022-11-16T10:58:06.333Z,1.83
2022-11-16T11:00:42.407Z,3.22
2022-11-16T11:03:09.470Z,2.60
2022-11-16T11:05:36.853Z,2.40
2022-11-16T11:08:11.869Z,3.60
2022-11-16T11:10:41.213Z,4.97
2022-11-16T11:13:10.785Z,2.50
2022-11-16T11:15:42.453Z,5.13
2022-11-16T11:18:18.323Z,3.85
2022-11-16T11:20:48.866Z,5.68
2022-11-16T11:23:22.298Z,3.15
2022-11-16T11:25:55.220Z,1.92
2022-11-16T11:28:33.660Z,3.40
2022-11-16T11:31:45.005Z,1.77
2022-11-16T11:34:20.208Z,1.92
2022-11-16T11:36:52.740Z,2.28
2022-11-16T11:39:19.649Z,1.67
2022-11-16T11:42:00.885Z,2.30
2022-11-16T11:44:53.860Z,3.47
2022-11-16T11:47:58.180Z,1.63
2022-11-16T11:50:42.983Z,3.33
2022-11-16T11:53:10.432Z,1.80
2022-11-16T11:55:37.501Z,2.72
2022-11-16T11:58:05.986Z,1.25
2022-11-16T12:00:51.162Z,1.42
2022-11-16T12:03:55.329Z,2.40
2022-11-16T12:06:47.126Z,1.40
2022-11-16T12:09:42.114Z,3.85
2022-11-16T12:12:14.965Z,2.60
2022-11-16T12:15:10.684Z,1.30
2022-11-16T12:18:12.468Z,3.33
2022-11-16T12:20:56.939Z,1.70
2022-11-16T12:23:56.316Z,4.60
2022-11-16T12:26:52.434Z,1.25
2022-11-16T12:29:26.680Z,2.42
2022-11-16T12:32:09.252Z,3.70
2022-11-16T12:35:13.133Z,3.22
2022-11-16T12:38:20.527Z,2.03
2022-11-16T12:41:14.159Z,2.05
2022-11-16T12:44:09.284Z,3.22
2022-11-16T12:46:52.193Z,1.92
2022-11-16T12:49:51.344Z,2.17
2022-11-16T12:52:44.034Z,1.50
2022-11-16T12:55:25.968Z,1.90
2022-11-16T12:58:10.886Z,1.88
2022-11-16T13:01:05.355Z,1.98
2022-11-16T13:03:45.840Z,2.00
2022-11-16T13:06:20.047Z,2.75
2022-11-16T13:09:11.221Z,2.30
2022-11-16T13:11:43.438Z,7.05
2022-11-16T13:14:21.619Z,2.05
2022-11-16T13:16:50.572Z,4.25
2022-11-16T13:19:17.961Z,1.98
2022-11-16T13:22:07.602Z,4.43
2022-11-16T13:24:53.011Z,1.75
2022-11-16T13:27:22.882Z,1.23
2022-11-16T13:30:12.648Z,2.05
2022-11-16T13:32:57.380Z,1.23
2022-11-16T13:35:24.073Z,1.77
2022-11-16T13:37:51.600Z,4.20
2022-11-16T13:40:34.419Z,2.10
2022-11-16T13:43:03.135Z,2.35
2022-11-16T13:45:36.965Z,3.95
2022-11-16T13:48:15.812Z,2.33
2022-11-16T13:50:51.769Z,1.50
2022-11-16T13:56:11.162Z,0.80
2022-11-16T13:58:43.861Z,4.57
2022-11-16T14:01:12.957Z,3.08
2022-11-16T14:04:09.082Z,2.28
2022-11-16T14:06:44.690Z,2.88
2022-11-16T14:09:47.432Z,3.80
2022-11-16T14:12:38.907Z,1.20
2022-11-16T14:15:14.296Z,1.67
2022-11-16T14:17:58.992Z,2.10
2022-11-16T14:20:38.215Z,1.67
2022-11-16T14:23:31.662Z,3.17
2022-11-16T14:26:24.221Z,2.03
2022-11-16T14:28:53.953Z,1.75
2022-11-16T14:31:46.200Z,1.58
2022-11-16T14:34:19.037Z,1.45
2022-11-16T14:36:47.079Z,2.00
2022-11-16T14:39:35.531Z,3.97
2022-11-16T14:42:05.769Z,2.25
2022-11-16T14:44:38.110Z,2.63
2022-11-16T14:47:05.150Z,2.35
2022-11-16T14:49:34.723Z,3.30
2022-11-16T14:52:03.414Z,3.00
2022-11-16T14:54:42.462Z,2.35
2022-11-16T14:57:21.547Z,2.63
2022-11-16T14:59:48.393Z,1.35
2022-11-16T15:02:20.887Z,1.73
2022-11-16T15:04:48.540Z,2.05
2022-11-16T15:07:16.241Z,1.67
2022-11-16T15:09:50.359Z,1.60
2022-11-16T15:12:20.052Z,2.53
2022-11-16T15:14:53.060Z,8.07
2022-11-16T15:17:31.721Z,2.80
2022-11-16T15:20:02.293Z,6.72
2022-11-16T15:22:42.449Z,4.40
2022-11-16T15:25:30.398Z,4.03
2022-11-16T15:27:59.229Z,4.25
2022-11-16T15:30:29.221Z,2.75
2022-11-16T15:32:56.513Z,16.75
2022-11-16T15:35:32.887Z,11.73
2022-11-16T15:38:20.339Z,4.72
2022-11-16T15:41:05.394Z,4.88
2022-11-16T15:43:49.629Z,4.97
2022-11-16T15:46:23.281Z,4.13
2022-11-16T15:48:50.740Z,8.38
2022-11-16T15:51:19.894Z,7.53
2022-11-16T15:53:48.549Z,6.80
2022-11-16T15:56:27.311Z,24.15
2022-11-16T15:58:55.792Z,17.75
2022-11-16T16:01:23.344Z,13.98
2022-11-16T16:04:01.468Z,7.15
2022-11-16T16:06:48.884Z,11.48
2022-11-16T16:09:20.385Z,6.85
2022-11-16T16:11:47.098Z,10.55
2022-11-16T16:14:22.809Z,11.18
2022-11-16T16:16:59.878Z,5.95
2022-11-16T16:19:32.977Z,10.57
2022-11-16T16:22:00.041Z,7.93
2022-11-16T16:24:35.320Z,6.28
2022-11-16T16:27:02.194Z,7.65
2022-11-16T16:29:28.709Z,8.02
2022-11-16T16:31:56.132Z,11.85
2022-11-16T16:34:22.626Z,7.07
2022-11-16T16:36:49.397Z,4.47
2022-11-16T16:39:15.944Z,7.97
2022-11-16T16:41:42.364Z,10.48
2022-11-16T16:44:14.018Z,11.80
2022-11-16T16:46:40.456Z,10.18
2022-11-16T16:49:07.094Z,6.95
2022-11-16T16:51:33.994Z,4.35
2022-11-16T16:54:00.497Z,7.72
2022-11-16T16:56:26.968Z,6.50
2022-11-16T16:58:53.387Z,14.23
2022-11-16T17:01:20.230Z,8.20
2022-11-16T17:03:46.686Z,6.90
2022-11-16T17:06:13.239Z,12.30
2022-11-16T17:08:39.739Z,7.75
2022-11-16T17:11:06.164Z,11.05
2022-11-16T17:13:33.889Z,11.82
2022-11-16T17:16:04.980Z,11.00
2022-11-16T17:18:31.617Z,6.40
2022-11-16T17:21:07.367Z,11.68
2022-11-16T17:23:35.139Z,9.48
2022-11-16T17:26:05.978Z,7.68
2022-11-16T17:28:40.608Z,7.60
2022-11-16T17:31:09.483Z,9.00
2022-11-16T17:33:46.096Z,7.80
2022-11-16T17:36:22.707Z,7.15
2022-11-16T17:38:50.137Z,7.60
2022-11-16T17:41:22.955Z,12.48
2022-11-16T17:43:52.968Z,12.98
2022-11-16T17:46:26.112Z,19.45
2022-11-16T17:48:53.138Z,10.27
2022-11-16T17:51:24.464Z,6.07
2022-11-16T17:53:51.513Z,6.32
2022-11-16T17:56:21.504Z,8.02
2022-11-16T17:58:48.393Z,7.93
2022-11-16T18:01:14.898Z,10.13
2022-11-16T18:03:42.427Z,28.08
2022-11-16T18:06:12.595Z,16.02
2022-11-16T18:08:40.632Z,11.18
2022-11-16T18:11:11.203Z,11.32
2022-11-16T18:13:38.038Z,29.63
2022-11-16T18:16:15.652Z,31.33
2022-11-16T18:18:43.242Z,17.73
2022-11-16T18:21:10.177Z,15.70
2022-11-16T18:23:38.155Z,17.98
2022-11-16T18:26:09.169Z,14.23
2022-11-16T18:28:36.585Z,9.82
2022-11-16T18:31:08.620Z,11.25
2022-11-16T18:33:39.603Z,12.50
2022-11-16T18:36:08.034Z,8.63
2022-11-16T18:38:34.885Z,10.10
2022-11-16T18:41:13.236Z,12.55
2022-11-16T18:43:57.743Z,7.18
2022-11-16T18:46:27.032Z,7.15
2022-11-16T18:48:53.975Z,8.93
2022-11-16T18:51:21.761Z,8.90
2022-11-16T18:53:49.046Z,9.88
2022-11-16T18:56:16.226Z,9.82
2022-11-16T18:58:50.236Z,11.90
2022-11-16T19:01:18.973Z,12.05
2022-11-16T19:03:45.488Z,51.55
2022-11-16T19:06:12.819Z,33.45
2022-11-16T19:08:40.499Z,19.45
2022-11-16T19:11:09.284Z,14.25
2022-11-16T19:13:37.435Z,21.65
2022-11-16T19:16:04.237Z,13.38
2022-11-16T19:18:30.670Z,45.95
2022-11-16T19:21:23.761Z,37.70
2022-11-16T19:23:52.787Z,26.45
2022-11-16T19:26:21.517Z,35.78
2022-11-16T19:28:49.560Z,27.95
2022-11-16T19:31:24.618Z,41.95
2022-11-16T19:33:59.808Z,27.00
2022-11-16T19:36:27.562Z,36.92
2022-11-16T19:38:54.049Z,45.83
2022-11-16T19:41:21.264Z,74.80
2022-11-16T19:43:48.517Z,49.13
2022-11-16T19:46:16.981Z,35.03
2022-11-16T19:48:44.622Z,12.43
2022-11-16T19:51:14.872Z,42.85
2022-11-16T19:53:44.206Z,96.95
2022-11-16T19:56:12.690Z,39.83
2022-11-16T19:58:39.574Z,44.85
2022-11-16T20:01:10.145Z,39.63
2022-11-16T20:03:37.275Z,56.63
2022-11-16T20:06:12.394Z,65.85
2022-11-16T20:08:40.237Z,31.52
2022-11-16T20:11:15.811Z,35.85
2022-11-16T20:13:42.964Z,36.70
2022-11-16T20:16:11.377Z,45.35
2022-11-16T20:18:39.347Z,24.05
2022-11-16T20:21:07.324Z,47.58
2022-11-16T20:23:35.013Z,22.95
2022-11-16T20:26:09.319Z,47.38
2022-11-16T20:28:37.994Z,21.55
2022-11-16T20:31:08.364Z,25.40
2022-11-16T20:34:05.740Z,17.60
2022-11-16T20:36:33.464Z,11.15
2022-11-16T20:39:00.888Z,31.55
2022-11-16T20:41:32.216Z,16.63
2022-11-16T20:44:00.811Z,26.27
2022-11-16T20:46:29.371Z,26.92
2022-11-16T20:48:56.210Z,42.42
2022-11-16T20:51:23.892Z,38.92
2022-11-16T20:53:50.895Z,16.25
2022-11-16T20:56:18.298Z,9.93
2022-11-16T20:58:46.031Z,10.00
2022-11-16T21:01:14.817Z,21.13
2022-11-16T21:03:41.401Z,9.65
2022-11-16T21:06:08.168Z,18.77
2022-11-16T21:08:35.625Z,23.40
2022-11-16T21:11:03.128Z,23.35
2022-11-16T21:13:29.513Z,41.60
2022-11-16T21:16:04.880Z,10.45
2022-11-16T21:18:31.787Z,10.63
2022-11-16T21:24:47.114Z,10.95
2022-11-16T21:27:13.501Z,8.68
2022-11-16T21:29:39.891Z,7.75
2022-11-16T21:35:06.786Z,10.48
2022-11-16T21:37:33.292Z,11.55
2022-11-16T21:39:59.718Z,7.35
2022-11-16T21:42:26.110Z,13.73
2022-11-16T21:44:52.709Z,9.77
2022-11-16T21:47:21.122Z,10.10
2022-11-16T21:50:16.462Z,11.18
2022-11-16T22:01:05.274Z,10.18
2022-11-16T22:03:32.794Z,13.15
2022-11-16T22:06:02.671Z,16.85
2022-11-16T22:08:29.793Z,10.77
2022-11-16T22:10:56.208Z,9.02
2022-11-16T22:16:30.144Z,7.85
2022-11-16T22:18:56.652Z,9.68
2022-11-16T22:21:23.109Z,8.82
2022-11-16T22:23:49.556Z,7.93
2022-11-16T22:26:16.114Z,14.85
2022-11-16T22:31:57.271Z,10.65
2022-11-16T22:34:23.853Z,14.40
2022-11-16T22:36:50.287Z,12.02
2022-11-16T22:39:16.693Z,6.75
2022-11-16T22:41:43.478Z,5.60
2022-11-16T22:44:09.893Z,9.35
2022-11-16T22:46:36.373Z,10.30
2022-11-16T22:49:02.973Z,9.27
2022-11-16T22:55:08.268Z,8.13
2022-11-16T22:57:34.804Z,5.88
2022-11-16T23:00:01.245Z,6.45
2022-11-16T23:02:27.988Z,7.38
2022-11-16T23:04:54.349Z,7.50
2022-11-16T23:07:20.970Z,7.28
2022-11-16T23:09:47.534Z,9.25
2022-11-16T23:12:14.200Z,9.48
2022-11-16T23:14:40.904Z,8.27
2022-11-16T23:17:07.501Z,6.28
2022-11-16T23:19:34.208Z,8.52
2022-11-16T23:22:00.811Z,7.45
2022-11-16T23:24:27.226Z,9.05
2022-11-16T23:26:53.956Z,7.85
2022-11-16T23:29:20.306Z,10.27
2022-11-16T23:31:46.763Z,8.40
2022-11-16T23:34:13.138Z,7.43
2022-11-16T23:36:39.487Z,8.93
2022-11-16T23:39:06.001Z,8.05
2022-11-16T23:41:32.391Z,11.02
2022-11-16T23:43:58.758Z,8.80
2022-11-16T23:46:30.165Z,7.10
2022-11-16T23:48:57.801Z,8.93
2022-11-16T23:51:25.111Z,7.43
2022-11-16T23:53:52.998Z,7.53
2022-11-16T23:56:21.205Z,8.85
2022-11-16T23:58:48.142Z,8.55
